createdAt,value
2019-02-05T00:04:05.974Z,61.56
2019-02-05T00:09:09.318Z,61.70
2019-02-05T00:14:11.112Z,61.47
2019-02-05T00:19:13.206Z,61.17
2019-02-05T00:24:14.786Z,61.33
2019-02-05T00:29:16.447Z,61.37
2019-02-05T00:34:18.036Z,61.10
2019-02-05T00:39:19.760Z,61.15
2019-02-05T00:44:21.443Z,61.09
2019-02-05T00:49:23.135Z,60.95
2019-02-05T00:54:24.700Z,60.93
2019-02-05T00:59:26.489Z,60.89
2019-02-05T01:04:28.160Z,60.88
2019-02-05T01:09:29.739Z,60.83
2019-02-05T01:14:31.320Z,60.89
2019-02-05T01:19:33.288Z,60.82
2019-02-05T01:24:34.972Z,60.83
2019-02-05T01:29:36.555Z,60.87
2019-02-05T01:34:38.159Z,60.83
2019-02-05T01:39:39.736Z,60.84
2019-02-05T01:44:41.941Z,60.82
2019-02-05T01:49:43.658Z,60.73
2019-02-05T01:54:45.336Z,60.61
2019-02-05T01:59:47.032Z,60.73
2019-02-05T02:04:49.118Z,60.65
2019-02-05T02:09:50.707Z,60.65
2019-02-05T02:14:52.369Z,60.70
2019-02-05T02:19:54.151Z,60.61
2019-02-05T02:24:55.830Z,60.75
2019-02-05T02:29:57.411Z,60.55
2019-02-05T02:34:58.968Z,60.50
2019-02-05T02:40:00.548Z,60.49
2019-02-05T02:45:04.267Z,60.58
2019-02-05T02:50:07.258Z,60.48
2019-02-05T02:55:09.313Z,60.43
2019-02-05T03:00:13.469Z,60.45
2019-02-05T03:05:17.170Z,60.42
2019-02-05T03:10:24.075Z,60.67
2019-02-05T03:15:25.858Z,60.47
2019-02-05T03:20:27.484Z,60.67
2019-02-05T03:25:29.356Z,60.49
2019-02-05T03:30:30.937Z,60.60
2019-02-05T03:35:32.501Z,60.57
2019-02-05T03:41:07.155Z,60.47
2019-02-05T03:46:12.850Z,60.63
2019-02-05T03:51:38.279Z,60.78
2019-02-05T03:57:30.590Z,60.58
2019-02-05T04:03:01.815Z,60.38
2019-02-05T04:08:17.943Z,60.28
2019-02-05T04:13:31.659Z,60.32
2019-02-05T04:19:21.834Z,60.45
2019-02-05T04:24:56.649Z,60.41
2019-02-05T04:30:25.168Z,60.36
2019-02-05T04:36:11.805Z,60.18
2019-02-05T04:41:58.052Z,60.31
2019-02-05T04:47:29.832Z,60.46
2019-02-05T04:53:28.972Z,60.45
2019-02-05T04:59:21.736Z,60.25
2019-02-05T05:05:07.184Z,60.38
2019-02-05T05:10:08.961Z,60.22
2019-02-05T05:15:10.751Z,60.17
2019-02-05T05:20:12.501Z,60.10
2019-02-05T05:25:14.207Z,60.06
2019-02-05T05:30:17.391Z,60.02
2019-02-05T05:35:18.970Z,59.96
2019-02-05T05:40:21.314Z,60.16
2019-02-05T05:45:23.012Z,59.91
2019-02-05T05:50:24.685Z,59.83
2019-02-05T05:55:26.574Z,59.93
2019-02-05T06:00:28.610Z,59.89
2019-02-05T06:05:30.193Z,59.89
2019-02-05T06:10:31.889Z,59.92
2019-02-05T06:15:35.822Z,59.86
2019-02-05T06:20:37.194Z,59.83
2019-02-05T06:25:38.776Z,59.71
2019-02-05T06:30:40.370Z,59.74
2019-02-05T06:35:42.065Z,59.70
2019-02-05T06:40:43.754Z,59.80
2019-02-05T06:45:45.332Z,59.86
2019-02-05T06:50:47.316Z,59.83
2019-02-05T06:55:48.926Z,59.74
2019-02-05T07:00:50.607Z,59.67
2019-02-05T07:05:52.382Z,59.73
2019-02-05T07:10:53.958Z,59.60
2019-02-05T07:15:55.551Z,59.47
2019-02-05T07:20:57.141Z,59.51
2019-02-05T07:25:58.729Z,59.39
2019-02-05T07:31:00.408Z,59.40
2019-02-05T07:36:02.201Z,59.25
2019-02-05T07:41:03.903Z,59.17
2019-02-05T07:46:05.701Z,58.95
2019-02-05T07:51:07.487Z,58.87
2019-02-05T07:56:09.190Z,58.88
2019-02-05T08:01:10.872Z,58.71
2019-02-05T08:06:12.577Z,58.71
2019-02-05T08:11:14.266Z,58.52
2019-02-05T08:16:16.006Z,58.35
2019-02-05T08:21:18.121Z,58.25
2019-02-05T08:26:19.816Z,58.26
2019-02-05T08:31:21.383Z,58.11
2019-02-05T08:36:23.343Z,58.00
2019-02-05T08:41:24.900Z,57.96
2019-02-05T08:46:26.460Z,57.90
2019-02-05T08:51:28.111Z,57.69
2019-02-05T08:56:29.788Z,57.66
2019-02-05T09:01:31.486Z,57.53
2019-02-05T09:06:35.407Z,57.30
2019-02-05T09:11:36.764Z,57.15
2019-02-05T09:16:38.351Z,57.09
2019-02-05T09:21:39.917Z,56.74
2019-02-05T09:26:41.599Z,56.65
2019-02-05T09:31:43.183Z,56.64
2019-02-05T09:36:44.759Z,56.35
2019-02-05T09:41:46.468Z,56.37
2019-02-05T09:46:48.044Z,56.50
2019-02-05T09:51:49.775Z,56.77
2019-02-05T09:56:51.531Z,56.87
2019-02-05T10:01:53.110Z,57.12
2019-02-05T10:06:54.708Z,57.17
2019-02-05T10:11:56.303Z,57.32
2019-02-05T10:16:57.905Z,57.40
2019-02-05T10:21:59.511Z,57.29
2019-02-05T10:27:01.234Z,57.40
2019-02-05T10:32:03.487Z,57.50
2019-02-05T10:37:05.258Z,57.49
2019-02-05T10:42:06.925Z,57.19
2019-02-05T10:47:08.804Z,56.74
2019-02-05T10:52:10.476Z,56.65
2019-02-05T10:57:12.189Z,56.89
2019-02-05T11:02:14.050Z,57.37
2019-02-05T11:07:15.629Z,57.58
2019-02-05T11:12:17.302Z,57.84
2019-02-05T11:17:18.971Z,58.13
2019-02-05T11:22:20.648Z,58.04
2019-02-05T11:27:22.272Z,57.96
2019-02-05T11:32:24.133Z,58.15
2019-02-05T11:37:25.810Z,58.25
2019-02-05T11:42:27.398Z,58.31
2019-02-05T11:47:29.199Z,58.13
2019-02-05T11:52:30.854Z,58.01
2019-02-05T11:57:32.454Z,58.33
2019-02-05T12:02:34.172Z,58.51
2019-02-05T12:07:36.761Z,58.63
2019-02-05T12:12:38.448Z,58.70
2019-02-05T12:17:40.162Z,58.61
2019-02-05T12:22:41.881Z,58.53
2019-02-05T12:27:43.597Z,58.29
2019-02-05T12:32:45.312Z,57.95
2019-02-05T12:37:47.001Z,57.50
2019-02-05T12:42:48.704Z,57.16
2019-02-05T12:47:50.407Z,57.23
2019-02-05T12:52:52.302Z,57.26
2019-02-05T12:57:55.038Z,57.30
2019-02-05T13:02:57.017Z,57.27
2019-02-05T13:07:58.721Z,57.52
2019-02-05T13:13:00.494Z,57.56
2019-02-05T13:18:02.222Z,57.68
2019-02-05T13:23:05.176Z,58.09
2019-02-05T13:28:08.871Z,57.57
2019-02-05T13:33:12.339Z,56.99
2019-02-05T13:38:14.053Z,57.07
2019-02-05T13:43:15.844Z,57.15
2019-02-05T13:48:17.527Z,56.19
2019-02-05T13:53:19.224Z,55.37
2019-02-05T13:58:20.799Z,56.41
2019-02-05T14:03:23.090Z,57.25
2019-02-05T14:08:24.666Z,57.83
2019-02-05T14:13:26.339Z,58.49
2019-02-05T14:18:27.906Z,59.00
2019-02-05T14:23:29.592Z,59.17
2019-02-05T14:28:31.156Z,59.55
2019-02-05T14:33:32.738Z,59.18
2019-02-05T14:38:34.395Z,58.67
2019-02-05T14:43:35.962Z,59.22
2019-02-05T14:48:37.539Z,59.28
2019-02-05T14:53:39.200Z,59.47
2019-02-05T14:58:40.873Z,60.11
2019-02-05T15:03:42.527Z,60.67
2019-02-05T15:08:44.351Z,60.84
2019-02-05T15:13:46.305Z,61.01
2019-02-05T15:18:48.040Z,61.06
2019-02-05T15:28:59.526Z,61.49
2019-02-05T15:34:04.063Z,61.57
2019-02-05T15:39:13.266Z,61.65
2019-02-05T15:44:15.194Z,61.81
2019-02-05T15:49:16.789Z,61.88
2019-02-05T15:54:18.360Z,62.02
2019-02-05T15:59:20.372Z,62.13
2019-02-05T16:04:22.078Z,62.26
2019-02-05T16:09:23.645Z,62.35
2019-02-05T16:14:25.417Z,62.38
2019-02-05T16:19:42.708Z,62.43
2019-02-05T16:24:44.591Z,62.53
2019-02-05T16:29:46.156Z,62.66
2019-02-05T16:34:47.726Z,62.75
2019-02-05T16:39:49.444Z,62.77
2019-02-05T16:44:51.165Z,62.52
2019-02-05T16:49:52.729Z,62.69
2019-02-05T16:54:54.459Z,62.76
2019-02-05T16:59:56.151Z,62.98
2019-02-05T17:04:58.294Z,63.08
2019-02-05T17:09:59.928Z,62.94
2019-02-05T17:15:01.601Z,62.92
2019-02-05T17:20:06.199Z,62.83
2019-02-05T17:25:09.910Z,63.00
2019-02-05T17:30:17.588Z,63.09
2019-02-05T17:35:19.486Z,63.15
2019-02-05T17:40:22.262Z,63.03
2019-02-05T17:45:29.124Z,63.02
2019-02-05T17:50:30.833Z,63.12
2019-02-05T17:55:33.245Z,63.07
2019-02-05T18:00:47.882Z,63.22
2019-02-05T18:05:49.618Z,63.28
2019-02-05T18:10:51.308Z,63.33
2019-02-05T18:15:53.480Z,63.68
2019-02-05T18:20:55.484Z,63.86
2019-02-05T18:25:57.877Z,63.73
2019-02-05T18:31:00.327Z,63.66
2019-02-05T18:36:04.005Z,63.59
2019-02-05T18:41:06.541Z,63.59
2019-02-05T18:46:12.611Z,63.52
2019-02-05T18:51:15.018Z,63.54
2019-02-05T18:56:19.090Z,63.58
2019-02-05T19:01:21.885Z,63.58
2019-02-05T19:06:25.098Z,63.63
2019-02-05T19:11:28.546Z,63.64
2019-02-05T19:16:32.259Z,63.69
2019-02-05T19:21:34.580Z,63.76
2019-02-05T19:26:48.553Z,63.76
2019-02-05T19:31:52.320Z,63.77
2019-02-05T19:36:55.685Z,63.79
2019-02-05T19:41:58.235Z,63.84
2019-02-05T19:47:07.763Z,63.89
2019-02-05T19:52:11.081Z,64.03
2019-02-05T19:57:14.496Z,64.06
2019-02-05T20:02:17.853Z,64.09
2019-02-05T20:07:20.668Z,63.99
2019-02-05T20:12:23.313Z,64.05
2019-02-05T20:17:26.136Z,64.11
2019-02-05T20:22:29.638Z,64.26
2019-02-05T20:27:33.811Z,64.18
2019-02-05T20:32:37.543Z,64.34
2019-02-05T20:37:41.066Z,64.36
2019-02-05T20:42:44.717Z,64.47
2019-02-05T20:47:48.534Z,64.41
2019-02-05T20:52:51.497Z,64.31
2019-02-05T20:57:54.007Z,64.44
2019-02-05T21:02:56.044Z,64.53
2019-02-05T21:07:58.081Z,64.57
2019-02-05T21:13:00.826Z,64.58
2019-02-05T21:18:03.875Z,64.65
2019-02-05T21:23:05.713Z,64.57
2019-02-05T21:28:07.542Z,64.48
2019-02-05T21:33:09.402Z,64.56
2019-02-05T21:38:11.522Z,64.64
2019-02-05T21:43:13.112Z,64.68
2019-02-05T21:48:15.061Z,64.75
2019-02-05T21:53:17.062Z,64.74
2019-02-05T21:58:18.736Z,64.83
2019-02-05T22:03:20.300Z,64.92
2019-02-05T22:08:21.878Z,65.03
2019-02-05T22:13:23.572Z,65.15
2019-02-05T22:18:25.162Z,65.24
2019-02-05T22:23:26.734Z,65.20
2019-02-05T22:28:28.428Z,65.17
2019-02-05T22:33:30.008Z,65.21
2019-02-05T22:38:32.180Z,65.16
2019-02-05T22:43:33.896Z,65.13
2019-02-05T22:48:35.497Z,65.19
2019-02-05T22:53:37.200Z,65.34
2019-02-05T22:58:38.807Z,65.42
2019-02-05T23:03:43.849Z,65.45
2019-02-05T23:08:45.868Z,65.39
2019-02-05T23:13:47.957Z,65.36
2019-02-05T23:18:49.644Z,65.50
2019-02-05T23:23:51.361Z,65.41
2019-02-05T23:28:53.139Z,65.41
2019-02-05T23:33:54.686Z,65.47
2019-02-05T23:38:56.385Z,65.49
2019-02-05T23:43:58.052Z,65.65
2019-02-05T23:48:59.699Z,65.73
2019-02-05T23:54:01.379Z,65.69
2019-02-05T23:59:03.288Z,65.63
